createdAt,value
2023-03-07T00:00:55.166Z,65.44
2023-03-07T00:03:28.951Z,65.30
2023-03-07T00:06:05.876Z,65.22
2023-03-07T00:08:45.870Z,65.23
2023-03-07T00:11:19.814Z,64.98
2023-03-07T00:24:33.862Z,64.93
2023-03-07T00:27:14.124Z,65.10
2023-03-07T00:29:48.661Z,65.07
2023-03-07T00:32:21.894Z,65.18
2023-03-07T00:34:56.341Z,65.36
2023-03-07T00:37:29.874Z,65.37
2023-03-07T00:40:07.477Z,65.38
2023-03-07T00:53:02.842Z,65.58
2023-03-07T00:55:44.900Z,65.58
2023-03-07T00:58:18.712Z,65.69
2023-03-07T01:00:51.907Z,65.39
2023-03-07T01:03:27.029Z,65.64
2023-03-07T01:06:01.861Z,65.68
2023-03-07T01:19:17.161Z,65.86
2023-03-07T01:21:50.908Z,65.83
2023-03-07T01:24:23.868Z,65.74
2023-03-07T01:26:57.118Z,65.99
2023-03-07T01:29:33.297Z,65.84
2023-03-07T01:32:06.608Z,66.06
2023-03-07T01:45:13.834Z,66.02
2023-03-07T01:47:54.897Z,65.91
2023-03-07T01:50:29.181Z,65.77
2023-03-07T01:53:06.844Z,65.87
2023-03-07T01:55:40.394Z,65.66
2023-03-07T01:58:21.849Z,65.82
2023-03-07T02:00:57.196Z,65.84
2023-03-07T02:13:45.845Z,65.56
2023-03-07T02:16:27.847Z,65.66
2023-03-07T02:19:01.502Z,65.73
2023-03-07T02:21:46.874Z,65.62
2023-03-07T02:24:32.028Z,65.59
2023-03-07T02:27:13.867Z,65.69
2023-03-07T02:40:29.873Z,65.52
2023-03-07T02:43:06.492Z,65.54
2023-03-07T02:45:46.870Z,65.57
2023-03-07T02:48:20.228Z,65.60
2023-03-07T02:50:54.858Z,65.61
2023-03-07T03:04:51.896Z,65.47
2023-03-07T03:07:27.201Z,65.60
2023-03-07T03:10:00.862Z,65.46
2023-03-07T03:12:34.351Z,65.77
2023-03-07T03:15:07.861Z,65.59
2023-03-07T03:17:41.980Z,65.55
2023-03-07T03:20:16.872Z,65.85
2023-03-07T03:33:30.862Z,65.72
2023-03-07T03:36:08.839Z,65.82
2023-03-07T03:38:52.529Z,65.58
2023-03-07T03:41:26.833Z,65.84
2023-03-07T03:44:00.856Z,65.66
2023-03-07T03:46:35.239Z,65.66
2023-03-07T03:59:25.828Z,65.48
2023-03-07T04:02:05.960Z,65.72
2023-03-07T04:04:39.246Z,65.75
2023-03-07T04:07:12.857Z,65.72
2023-03-07T04:09:46.129Z,65.70
2023-03-07T04:12:19.839Z,65.91
2023-03-07T04:25:31.914Z,65.52
2023-03-07T04:28:05.384Z,65.48
2023-03-07T04:30:39.860Z,65.41
2023-03-07T04:33:13.104Z,65.31
2023-03-07T04:35:46.861Z,65.34
2023-03-07T04:38:20.250Z,65.33
2023-03-07T04:40:57.474Z,65.22
2023-03-07T04:54:07.836Z,65.21
2023-03-07T04:56:43.764Z,65.20
2023-03-07T04:59:18.927Z,65.36
2023-03-07T05:01:54.141Z,65.30
2023-03-07T05:04:27.910Z,65.21
2023-03-07T05:07:01.153Z,65.13
2023-03-07T05:19:51.796Z,64.95
2023-03-07T05:22:31.852Z,65.14
2023-03-07T05:25:06.866Z,65.17
2023-03-07T05:27:40.813Z,64.98
2023-03-07T05:30:15.250Z,64.88
2023-03-07T05:46:24.145Z,65.14
2023-03-07T05:48:59.373Z,65.03
2023-03-07T05:51:39.828Z,64.91
2023-03-07T05:54:13.243Z,65.01
2023-03-07T05:56:46.815Z,65.02
2023-03-07T05:59:20.544Z,65.07
2023-03-07T06:01:57.836Z,65.09
2023-03-07T06:12:13.781Z,65.15
2023-03-07T06:14:53.835Z,65.25
2023-03-07T06:17:29.289Z,64.96
2023-03-07T06:20:02.814Z,65.06
2023-03-07T06:22:36.760Z,64.94
2023-03-07T06:25:16.806Z,65.08
2023-03-07T06:27:50.198Z,65.28
2023-03-07T06:41:03.794Z,65.21
2023-03-07T06:43:44.827Z,65.21
2023-03-07T06:46:18.700Z,65.62
2023-03-07T06:48:52.074Z,65.48
2023-03-07T06:51:25.648Z,65.54
2023-03-07T07:07:43.829Z,65.77
2023-03-07T07:10:17.644Z,66.07
2023-03-07T07:12:50.827Z,66.13
2023-03-07T07:15:25.133Z,66.12
2023-03-07T07:17:59.789Z,66.20
2023-03-07T07:20:34.469Z,66.45
2023-03-07T07:33:25.816Z,66.54
2023-03-07T07:36:05.789Z,66.69
2023-03-07T07:38:39.425Z,66.74
2023-03-07T07:41:12.828Z,66.76
2023-03-07T07:43:47.455Z,66.96
2023-03-07T07:46:30.806Z,66.97
2023-03-07T07:59:44.813Z,67.15
2023-03-07T08:02:18.289Z,67.45
2023-03-07T08:04:51.808Z,67.32
2023-03-07T08:07:25.236Z,67.49
2023-03-07T08:10:01.235Z,67.35
2023-03-07T08:12:34.098Z,67.42
2023-03-07T08:26:03.817Z,67.58
2023-03-07T08:28:46.812Z,67.81
2023-03-07T08:31:23.193Z,67.46
2023-03-07T08:34:03.825Z,67.51
2023-03-07T08:36:37.440Z,67.51
2023-03-07T08:39:10.816Z,67.58
2023-03-07T08:41:46.092Z,67.58
2023-03-07T08:54:34.760Z,67.48
2023-03-07T08:57:17.645Z,67.26
2023-03-07T08:59:51.128Z,67.20
2023-03-07T09:02:24.815Z,67.42
2023-03-07T09:04:58.094Z,67.44
2023-03-07T09:07:31.806Z,67.58
2023-03-07T09:20:44.786Z,66.96
2023-03-07T09:23:18.007Z,67.17
2023-03-07T09:25:51.782Z,67.29
2023-03-07T09:28:25.179Z,67.39
2023-03-07T09:30:58.792Z,67.45
2023-03-07T09:48:04.786Z,67.49
2023-03-07T09:50:54.775Z,67.34
2023-03-07T09:53:38.800Z,67.13
2023-03-07T09:56:25.794Z,67.51
2023-03-07T09:59:22.079Z,67.46
2023-03-07T10:02:15.622Z,67.23
2023-03-07T10:15:47.828Z,67.16
2023-03-07T10:18:53.639Z,67.01
2023-03-07T10:21:45.800Z,66.71
2023-03-07T10:24:52.559Z,66.69
2023-03-07T10:27:35.780Z,66.66
2023-03-07T10:40:56.802Z,66.74
2023-03-07T10:43:33.090Z,66.62
2023-03-07T10:46:26.943Z,66.69
2023-03-07T10:49:12.893Z,66.56
2023-03-07T10:52:04.782Z,66.76
2023-03-07T11:08:42.733Z,66.65
2023-03-07T11:11:30.765Z,66.82
2023-03-07T11:14:07.138Z,67.03
2023-03-07T11:16:47.758Z,66.78
2023-03-07T11:19:40.125Z,66.98
2023-03-07T11:22:30.766Z,66.65
2023-03-07T11:38:54.793Z,67.51
2023-03-07T11:41:37.773Z,66.75
2023-03-07T11:44:34.208Z,67.30
2023-03-07T11:47:38.764Z,67.05
2023-03-07T12:01:12.208Z,66.16
2023-03-07T12:04:24.957Z,65.98
2023-03-07T12:07:24.443Z,65.81
2023-03-07T12:10:17.034Z,66.15
2023-03-07T12:13:15.779Z,65.83
2023-03-07T12:16:08.916Z,65.39
2023-03-07T12:29:10.723Z,65.96
2023-03-07T12:31:58.875Z,65.69
2023-03-07T12:34:40.839Z,65.87
2023-03-07T12:37:29.757Z,65.83
2023-03-07T12:40:12.803Z,65.85
2023-03-07T12:43:02.754Z,65.68
2023-03-07T12:53:39.725Z,64.91
2023-03-07T12:56:26.753Z,65.14
2023-03-07T12:59:10.480Z,64.57
2023-03-07T13:01:55.734Z,63.84
2023-03-07T13:04:34.976Z,63.75
2023-03-07T13:07:19.746Z,63.36
2023-03-07T13:21:16.741Z,62.87
2023-03-07T13:24:24.929Z,62.33
2023-03-07T13:27:05.751Z,62.05
2023-03-07T13:30:18.081Z,62.02
2023-03-07T13:33:08.734Z,62.36
2023-03-07T13:35:55.888Z,62.39
2023-03-07T13:49:07.691Z,61.65
2023-03-07T13:52:27.737Z,61.13
2023-03-07T13:55:18.876Z,61.18
2023-03-07T13:58:01.743Z,61.14
2023-03-07T14:00:46.749Z,60.72
2023-03-07T14:14:27.697Z,59.64
2023-03-07T14:20:17.958Z,59.38
2023-03-07T14:23:19.754Z,59.21
2023-03-07T14:26:08.975Z,59.54
2023-03-07T14:42:41.732Z,59.67
2023-03-07T14:45:23.867Z,59.70
2023-03-07T14:48:36.728Z,59.79
2023-03-07T14:51:15.836Z,59.85
2023-03-07T14:53:56.725Z,59.85
2023-03-07T14:56:31.855Z,60.15
2023-03-07T15:09:21.701Z,60.59
2023-03-07T15:12:11.705Z,60.76
2023-03-07T15:14:50.076Z,60.29
2023-03-07T15:17:34.803Z,60.53
2023-03-07T15:20:23.437Z,60.39
2023-03-07T15:23:10.865Z,60.33
2023-03-07T15:36:32.748Z,60.32
2023-03-07T15:39:28.148Z,60.23
2023-03-07T15:42:12.721Z,60.11
2023-03-07T15:44:53.594Z,60.26
2023-03-07T15:47:36.722Z,60.31
2023-03-07T16:00:53.737Z,58.52
2023-03-07T16:03:29.473Z,58.81
2023-03-07T16:06:05.725Z,58.42
2023-03-07T16:08:39.141Z,58.51
2023-03-07T16:11:17.699Z,58.66
2023-03-07T16:13:51.121Z,58.80
2023-03-07T16:16:30.777Z,59.14
2023-03-07T16:29:40.731Z,57.74
2023-03-07T16:32:18.775Z,57.05
2023-03-07T16:35:20.588Z,57.15
2023-03-07T16:37:54.751Z,57.14
2023-03-07T16:40:29.607Z,57.18
2023-03-07T16:43:02.852Z,57.41
2023-03-07T16:55:53.534Z,56.52
2023-03-07T16:58:37.566Z,56.75
2023-03-07T17:01:13.496Z,56.54
2023-03-07T17:03:47.550Z,56.71
2023-03-07T17:06:38.420Z,56.59
2023-03-07T17:23:01.550Z,57.14
2023-03-07T17:25:34.806Z,56.84
2023-03-07T17:28:14.634Z,56.51
2023-03-07T17:30:47.835Z,56.53
2023-03-07T17:33:21.577Z,56.85
2023-03-07T17:35:54.799Z,57.25
2023-03-07T17:48:44.566Z,56.47
2023-03-07T17:51:24.544Z,56.84
2023-03-07T17:53:58.234Z,57.03
2023-03-07T17:56:31.555Z,56.99
2023-03-07T17:59:05.542Z,57.50
2023-03-07T18:01:49.138Z,58.36
2023-03-07T18:15:01.536Z,61.96
2023-03-07T18:17:46.909Z,62.54
2023-03-07T18:20:27.557Z,62.65
2023-03-07T18:23:00.798Z,62.97
2023-03-07T18:25:34.572Z,63.04
2023-03-07T18:28:07.780Z,63.30
2023-03-07T18:41:29.506Z,64.02
2023-03-07T18:44:09.558Z,64.12
2023-03-07T18:46:42.886Z,63.94
2023-03-07T18:49:16.533Z,63.95
2023-03-07T18:51:49.890Z,64.00
2023-03-07T18:54:23.533Z,64.06
2023-03-07T18:56:58.704Z,64.14
2023-03-07T19:09:48.381Z,64.04
2023-03-07T19:12:30.544Z,64.01
2023-03-07T19:15:05.567Z,63.78
2023-03-07T19:17:44.576Z,63.88
2023-03-07T19:20:18.309Z,64.03
2023-03-07T19:22:51.512Z,64.15
2023-03-07T19:36:13.501Z,64.06
2023-03-07T19:38:48.775Z,64.04
2023-03-07T19:41:25.521Z,63.87
2023-03-07T19:44:00.729Z,63.87
2023-03-07T19:46:34.528Z,63.93
2023-03-07T20:03:11.508Z,64.01
2023-03-07T20:05:54.564Z,63.74
2023-03-07T20:08:28.005Z,63.77
2023-03-07T20:11:09.318Z,63.77
2023-03-07T20:13:44.779Z,63.71
2023-03-07T20:16:20.429Z,63.76
2023-03-07T20:29:32.550Z,63.63
2023-03-07T20:32:05.852Z,63.36
2023-03-07T20:34:39.524Z,63.47
2023-03-07T20:37:12.894Z,63.55
2023-03-07T20:39:46.856Z,63.49
2023-03-07T20:42:19.771Z,63.41
2023-03-07T20:55:15.507Z,63.16
2023-03-07T20:57:55.503Z,63.32
2023-03-07T21:00:28.768Z,63.29
2023-03-07T21:03:05.908Z,63.35
2023-03-07T21:05:39.916Z,63.39
2023-03-07T21:08:13.533Z,63.23
2023-03-07T21:10:58.388Z,63.42
2023-03-07T21:23:54.482Z,63.26
2023-03-07T21:26:38.506Z,63.60
2023-03-07T21:29:11.805Z,63.25
2023-03-07T21:31:45.517Z,63.52
2023-03-07T21:34:18.787Z,63.47
2023-03-07T21:36:52.513Z,63.49
2023-03-07T21:50:08.492Z,63.76
2023-03-07T21:52:41.728Z,63.67
2023-03-07T21:55:16.508Z,63.66
2023-03-07T21:57:49.832Z,64.07
2023-03-07T22:00:24.505Z,63.90
2023-03-07T22:02:58.418Z,63.89
2023-03-07T22:15:48.465Z,64.26
2023-03-07T22:18:28.501Z,64.30
2023-03-07T22:21:06.604Z,64.17
2023-03-07T22:23:46.487Z,64.07
2023-03-07T22:26:19.733Z,64.17
2023-03-07T22:28:53.480Z,64.36
2023-03-07T22:31:29.004Z,64.18
2023-03-07T22:44:17.445Z,64.15
2023-03-07T22:47:00.772Z,64.24
2023-03-07T22:49:33.896Z,64.09
2023-03-07T22:52:07.516Z,64.17
2023-03-07T22:54:40.855Z,64.23
2023-03-07T22:57:14.467Z,64.42
2023-03-07T23:10:26.466Z,64.10
2023-03-07T23:12:59.727Z,64.38
2023-03-07T23:15:33.530Z,64.39
2023-03-07T23:18:09.221Z,64.42
2023-03-07T23:20:43.493Z,64.43
2023-03-07T23:23:16.751Z,64.42
2023-03-07T23:36:07.461Z,64.44
2023-03-07T23:38:47.483Z,64.38
2023-03-07T23:41:20.881Z,64.51
2023-03-07T23:43:57.494Z,64.36
2023-03-07T23:46:31.461Z,64.07
2023-03-07T23:49:06.130Z,64.08
2023-03-07T23:51:41.678Z,64.20
